createdAt,value
2018-04-06T00:01:00.055Z,20.10
2018-04-06T00:02:02.561Z,20.10
2018-04-06T00:03:05.046Z,20.10
2018-04-06T00:04:08.084Z,20.10
2018-04-06T00:05:10.603Z,20.10
2018-04-06T00:06:13.882Z,20.10
2018-04-06T00:07:16.379Z,20.10
2018-04-06T00:08:18.886Z,20.00
2018-04-06T00:09:21.388Z,20.00
2018-04-06T00:10:24.652Z,20.10
2018-04-06T00:11:27.162Z,20.00
2018-04-06T00:12:30.420Z,20.00
2018-04-06T00:13:33.709Z,20.00
2018-04-06T00:14:36.980Z,20.00
2018-04-06T00:15:40.255Z,19.90
2018-04-06T00:16:42.744Z,20.00
2018-04-06T00:17:45.298Z,20.00
2018-04-06T00:18:47.752Z,20.00
2018-04-06T00:19:51.016Z,20.00
2018-04-06T00:20:53.538Z,19.90
2018-04-06T00:21:56.795Z,19.90
2018-04-06T00:23:00.052Z,19.90
2018-04-06T00:24:02.561Z,19.90
2018-04-06T00:25:05.064Z,19.90
2018-04-06T00:26:07.567Z,19.90
2018-04-06T00:27:10.833Z,19.90
2018-04-06T00:28:13.336Z,19.90
2018-04-06T00:29:15.920Z,19.80
2018-04-06T00:30:18.433Z,19.80
2018-04-06T00:31:21.719Z,19.80
2018-04-06T00:32:24.209Z,19.80
2018-04-06T00:33:27.466Z,19.80
2018-04-06T00:34:29.952Z,19.70
2018-04-06T00:35:33.211Z,19.80
2018-04-06T00:36:35.724Z,19.80
2018-04-06T00:37:38.221Z,19.80
2018-04-06T00:38:40.709Z,19.80
2018-04-06T00:39:43.217Z,19.80
2018-04-06T00:40:45.720Z,19.80
2018-04-06T00:41:48.236Z,19.80
2018-04-06T00:42:50.740Z,19.70
2018-04-06T00:43:53.235Z,19.70
2018-04-06T00:44:55.728Z,19.70
2018-04-06T00:45:58.226Z,19.70
2018-04-06T00:47:00.744Z,19.70
2018-04-06T00:48:04.029Z,19.70
2018-04-06T00:49:07.281Z,19.70
2018-04-06T00:50:09.768Z,19.70
2018-04-06T00:51:12.277Z,19.70
2018-04-06T00:52:14.799Z,19.70
2018-04-06T00:54:56.080Z,19.70
2018-04-06T00:55:58.571Z,19.80
2018-04-06T00:57:01.823Z,19.80
2018-04-06T00:58:04.332Z,19.80
2018-04-06T00:59:06.819Z,19.80
2018-04-06T01:00:09.361Z,19.80
2018-04-06T01:01:11.848Z,19.80
2018-04-06T01:02:14.355Z,19.80
2018-04-06T01:03:17.650Z,19.70
2018-04-06T01:04:20.943Z,19.70
2018-04-06T01:05:23.480Z,19.70
2018-04-06T01:06:25.982Z,19.70
2018-04-06T01:07:28.483Z,19.70
2018-04-06T01:08:30.992Z,19.70
2018-04-06T01:09:33.500Z,19.70
2018-04-06T01:10:36.001Z,19.70
2018-04-06T01:11:38.492Z,19.60
2018-04-06T01:12:41.747Z,19.70
2018-04-06T01:13:44.259Z,19.60
2018-04-06T01:14:46.768Z,19.70
2018-04-06T01:15:49.272Z,19.70
2018-04-06T01:16:52.543Z,19.60
2018-04-06T01:17:55.808Z,19.60
2018-04-06T01:18:58.317Z,19.70
2018-04-06T01:20:00.815Z,19.60
2018-04-06T01:21:03.298Z,19.60
2018-04-06T01:22:05.816Z,19.60
2018-04-06T01:23:08.320Z,19.60
2018-04-06T01:24:10.817Z,19.60
2018-04-06T01:25:14.107Z,19.60
2018-04-06T01:26:17.367Z,19.60
2018-04-06T01:27:19.888Z,19.60
2018-04-06T01:28:22.380Z,19.60
2018-04-06T01:29:24.888Z,19.60
2018-04-06T01:30:28.183Z,19.60
2018-04-06T01:31:30.678Z,19.60
2018-04-06T01:32:33.172Z,19.60
2018-04-06T01:33:35.673Z,19.60
2018-04-06T01:34:38.974Z,19.50
2018-04-06T01:35:42.226Z,19.60
2018-04-06T01:36:45.484Z,19.50
2018-04-06T01:37:47.971Z,19.50
2018-04-06T01:38:51.240Z,19.60
2018-04-06T01:39:53.759Z,19.50
2018-04-06T01:40:56.264Z,19.50
2018-04-06T01:41:58.763Z,19.60
2018-04-06T01:43:02.020Z,19.50
2018-04-06T01:44:04.516Z,19.50
2018-04-06T01:45:07.003Z,19.50
2018-04-06T01:46:09.521Z,19.60
2018-04-06T01:47:12.006Z,19.50
2018-04-06T01:48:15.288Z,19.50
2018-04-06T01:49:18.540Z,19.50
2018-04-06T01:50:21.064Z,19.50
2018-04-06T01:51:23.580Z,19.50
2018-04-06T01:52:26.097Z,19.50
2018-04-06T01:53:28.612Z,19.50
2018-04-06T01:54:31.095Z,19.50
2018-04-06T01:55:34.384Z,19.50
2018-04-06T01:56:37.637Z,19.50
2018-04-06T01:57:40.140Z,19.50
2018-04-06T01:58:42.633Z,19.40
2018-04-06T01:59:45.123Z,19.50
2018-04-06T02:00:47.609Z,19.50
2018-04-06T02:01:50.873Z,19.50
2018-04-06T02:02:53.389Z,19.50
2018-04-06T02:03:55.879Z,19.50
2018-04-06T02:04:58.413Z,19.50
2018-04-06T02:06:00.947Z,19.40
2018-04-06T02:07:03.451Z,19.50
2018-04-06T02:08:05.953Z,19.50
2018-04-06T02:09:08.444Z,19.40
2018-04-06T02:10:10.936Z,19.40
2018-04-06T02:11:13.455Z,19.40
2018-04-06T02:12:15.944Z,19.40
2018-04-06T02:13:19.234Z,19.40
2018-04-06T02:14:22.489Z,19.40
2018-04-06T02:15:25.019Z,19.40
2018-04-06T02:16:27.507Z,19.40
2018-04-06T02:17:30.020Z,19.40
2018-04-06T02:18:33.287Z,19.40
2018-04-06T02:19:36.560Z,19.40
2018-04-06T02:20:39.072Z,19.40
2018-04-06T02:21:41.589Z,19.40
2018-04-06T02:22:44.100Z,19.40
2018-04-06T02:23:46.583Z,19.40
2018-04-06T02:24:49.854Z,19.40
2018-04-06T02:25:52.340Z,19.40
2018-04-06T02:26:54.828Z,19.40
2018-04-06T02:27:57.351Z,19.40
2018-04-06T02:28:59.872Z,19.40
2018-04-06T02:30:02.380Z,19.40
2018-04-06T02:31:04.890Z,19.40
2018-04-06T02:32:07.394Z,19.40
2018-04-06T02:33:09.898Z,19.40
2018-04-06T02:34:12.388Z,19.40
2018-04-06T02:35:14.884Z,19.40
2018-04-06T02:36:18.138Z,19.40
2018-04-06T02:37:20.622Z,19.40
2018-04-06T02:38:23.925Z,19.40
2018-04-06T02:39:26.415Z,19.40
2018-04-06T02:40:28.909Z,19.40
2018-04-06T02:41:31.426Z,19.40
2018-04-06T02:42:33.937Z,19.40
2018-04-06T02:43:36.546Z,19.40
2018-04-06T02:44:39.019Z,19.40
2018-04-06T02:45:41.516Z,19.40
2018-04-06T02:46:44.007Z,19.40
2018-04-06T02:47:46.496Z,19.40
2018-04-06T02:48:49.756Z,19.30
2018-04-06T02:49:52.243Z,19.30
2018-04-06T02:50:55.502Z,19.30
2018-04-06T02:51:57.996Z,19.30
2018-04-06T02:53:01.265Z,19.30
2018-04-06T02:54:04.575Z,19.30
2018-04-06T02:55:07.068Z,19.30
2018-04-06T02:56:09.569Z,19.30
2018-04-06T02:57:12.067Z,19.30
2018-04-06T02:58:14.584Z,19.30
2018-04-06T02:59:17.087Z,19.30
2018-04-06T03:00:20.387Z,19.30
2018-04-06T03:01:22.882Z,19.30
2018-04-06T03:02:25.368Z,19.30
2018-04-06T03:03:27.864Z,19.30
2018-04-06T03:04:31.119Z,19.30
2018-04-06T03:05:33.671Z,19.30
2018-04-06T03:06:36.133Z,19.30
2018-04-06T03:07:38.638Z,19.30
2018-04-06T03:08:41.929Z,19.30
2018-04-06T03:09:44.424Z,19.30
2018-04-06T03:10:46.912Z,19.30
2018-04-06T03:11:49.419Z,19.30
2018-04-06T03:12:52.684Z,19.30
2018-04-06T03:13:55.192Z,19.30
2018-04-06T03:14:57.698Z,19.30
2018-04-06T03:16:00.205Z,19.30
2018-04-06T03:17:03.478Z,19.30
2018-04-06T03:18:06.788Z,19.30
2018-04-06T03:19:09.317Z,19.30
2018-04-06T03:20:11.818Z,19.30
2018-04-06T03:21:14.312Z,19.30
2018-04-06T03:22:17.591Z,19.30
2018-04-06T03:23:20.083Z,19.30
2018-04-06T03:24:22.584Z,19.20
2018-04-06T03:25:25.075Z,19.20
2018-04-06T03:26:27.568Z,19.20
2018-04-06T03:27:30.075Z,19.20
2018-04-06T03:28:32.569Z,19.30
2018-04-06T03:29:35.064Z,19.20
2018-04-06T03:30:37.553Z,19.20
2018-04-06T03:31:40.830Z,19.20
2018-04-06T03:32:44.120Z,19.20
2018-04-06T03:33:47.383Z,19.20
2018-04-06T03:34:49.891Z,19.20
2018-04-06T03:35:52.384Z,19.20
2018-04-06T03:36:54.870Z,19.20
2018-04-06T03:37:57.357Z,19.20
2018-04-06T03:38:59.872Z,19.20
2018-04-06T03:40:02.368Z,19.20
2018-04-06T03:41:04.864Z,19.20
2018-04-06T03:42:08.115Z,19.20
2018-04-06T03:43:11.412Z,19.20
2018-04-06T03:44:13.919Z,19.20
2018-04-06T03:45:16.439Z,19.20
2018-04-06T03:46:18.930Z,19.20
2018-04-06T03:47:22.188Z,19.20
2018-04-06T03:48:24.679Z,19.20
2018-04-06T03:49:27.931Z,19.20
2018-04-06T03:50:30.431Z,19.20
2018-04-06T03:51:33.693Z,19.10
2018-04-06T03:52:36.185Z,19.10
2018-04-06T03:53:38.680Z,19.20
2018-04-06T03:54:41.196Z,19.20
2018-04-06T03:55:44.490Z,19.20
2018-04-06T03:56:47.774Z,19.20
2018-04-06T03:57:51.023Z,19.10
2018-04-06T03:58:53.522Z,19.20
2018-04-06T03:59:56.775Z,19.20
2018-04-06T04:00:59.275Z,19.20
2018-04-06T04:02:01.766Z,19.10
2018-04-06T04:03:04.256Z,19.20
2018-04-06T04:04:06.765Z,19.20
2018-04-06T04:05:10.025Z,19.10
2018-04-06T04:06:12.546Z,19.10
2018-04-06T04:07:15.088Z,19.10
2018-04-06T04:08:17.606Z,19.10
2018-04-06T04:09:20.126Z,19.10
2018-04-06T04:10:22.615Z,19.10
2018-04-06T04:11:25.105Z,19.10
2018-04-06T04:12:27.611Z,19.10
2018-04-06T04:13:30.100Z,19.10
2018-04-06T04:14:32.672Z,19.10
2018-04-06T04:15:35.173Z,19.10
2018-04-06T04:16:37.699Z,19.10
2018-04-06T04:17:40.201Z,19.10
2018-04-06T04:18:42.719Z,19.10
2018-04-06T04:19:45.220Z,19.10
2018-04-06T04:20:47.735Z,19.10
2018-04-06T04:21:50.232Z,19.10
2018-04-06T04:22:52.737Z,19.10
2018-04-06T04:23:55.234Z,19.10
2018-04-06T04:24:57.728Z,19.10
2018-04-06T04:26:00.229Z,19.10
2018-04-06T04:27:02.724Z,19.10
2018-04-06T04:28:05.249Z,19.10
2018-04-06T04:29:07.747Z,19.10
2018-04-06T04:30:11.008Z,19.10
2018-04-06T04:31:13.493Z,19.10
2018-04-06T04:32:16.777Z,19.10
2018-04-06T04:33:20.062Z,19.10
2018-04-06T04:34:24.182Z,19.10
2018-04-06T04:35:26.725Z,19.10
2018-04-06T04:36:29.402Z,19.10
2018-04-06T04:37:31.905Z,19.10
2018-04-06T04:38:34.400Z,19.10
2018-04-06T04:39:36.934Z,19.00
2018-04-06T04:40:39.424Z,19.10
2018-04-06T04:41:41.922Z,19.10
2018-04-06T04:42:45.272Z,19.10
2018-04-06T04:43:47.811Z,19.10
2018-04-06T04:44:50.316Z,19.10
2018-04-06T04:45:52.834Z,19.10
2018-04-06T04:46:55.382Z,19.10
2018-04-06T04:48:00.112Z,19.10
2018-04-06T04:49:02.599Z,19.10
2018-04-06T04:50:05.184Z,19.10
2018-04-06T04:51:07.704Z,19.10
2018-04-06T04:52:10.281Z,19.10
2018-04-06T04:53:12.775Z,19.00
2018-04-06T04:54:15.263Z,19.00
2018-04-06T04:55:17.830Z,19.10
2018-04-06T04:56:20.319Z,19.00
2018-04-06T04:57:23.600Z,19.10
2018-04-06T04:58:26.218Z,19.00
2018-04-06T04:59:28.815Z,19.00
2018-04-06T05:00:31.314Z,19.00
2018-04-06T05:01:33.824Z,19.00
2018-04-06T05:02:36.346Z,19.00
2018-04-06T05:03:38.864Z,19.00
2018-04-06T05:04:41.368Z,19.00
2018-04-06T05:05:43.878Z,19.00
2018-04-06T05:06:46.412Z,19.00
2018-04-06T05:07:48.931Z,19.00
2018-04-06T05:08:51.483Z,19.00
2018-04-06T05:09:53.987Z,19.00
2018-04-06T05:10:57.284Z,19.00
2018-04-06T05:11:59.815Z,19.00
2018-04-06T05:13:02.309Z,19.00
2018-04-06T05:14:04.820Z,19.00
2018-04-06T05:15:07.313Z,19.00
2018-04-06T05:16:09.809Z,19.00
2018-04-06T05:17:12.320Z,19.10
2018-04-06T05:18:14.896Z,19.10
2018-04-06T05:19:17.395Z,19.10
2018-04-06T05:20:20.677Z,19.10
2018-04-06T05:21:23.942Z,19.00
2018-04-06T05:22:26.452Z,19.00
2018-04-06T05:23:28.956Z,19.00
2018-04-06T05:24:31.489Z,19.00
2018-04-06T05:25:34.008Z,19.00
2018-04-06T05:26:37.287Z,19.00
2018-04-06T05:27:39.812Z,19.00
2018-04-06T05:28:42.285Z,19.00
2018-04-06T05:29:44.775Z,19.00
2018-04-06T05:30:47.264Z,19.00
2018-04-06T05:31:50.524Z,19.00
2018-04-06T05:32:53.021Z,19.00
2018-04-06T05:33:56.284Z,19.00
2018-04-06T05:34:59.556Z,19.10
2018-04-06T05:36:02.076Z,19.00
2018-04-06T05:37:04.585Z,19.00
2018-04-06T05:38:07.080Z,19.00
2018-04-06T05:39:10.335Z,19.00
2018-04-06T05:40:12.831Z,19.00
2018-04-06T05:41:16.084Z,18.90
2018-04-06T05:42:18.597Z,18.90
2018-04-06T05:43:21.097Z,18.90
2018-04-06T05:44:23.598Z,18.90
2018-04-06T05:45:26.872Z,19.00
2018-04-06T05:46:29.366Z,18.90
2018-04-06T05:47:31.896Z,18.90
2018-04-06T05:48:34.423Z,18.90
2018-04-06T05:49:36.928Z,18.90
2018-04-06T05:50:40.207Z,18.90
2018-04-06T05:51:43.481Z,18.90
2018-04-06T05:52:45.994Z,19.00
2018-04-06T05:53:48.506Z,18.90
2018-04-06T05:54:51.016Z,18.90
2018-04-06T05:55:53.518Z,18.90
2018-04-06T05:56:56.008Z,18.90
2018-04-06T05:57:58.509Z,18.90
2018-04-06T05:59:01.771Z,18.90
2018-04-06T06:00:04.302Z,18.90
2018-04-06T06:01:06.821Z,18.90
2018-04-06T06:02:10.080Z,18.90
2018-04-06T06:03:12.580Z,18.90
2018-04-06T06:04:15.091Z,18.90
2018-04-06T06:05:17.585Z,18.90
2018-04-06T06:06:20.848Z,18.90
2018-04-06T06:07:23.353Z,18.80
2018-04-06T06:08:25.865Z,18.90
2018-04-06T06:09:28.372Z,18.90
2018-04-06T06:10:31.636Z,18.90
2018-04-06T06:11:34.144Z,18.90
2018-04-06T06:12:36.701Z,18.90
2018-04-06T06:13:39.245Z,18.90
2018-04-06T06:14:42.523Z,18.90
2018-04-06T06:15:45.035Z,18.90
2018-04-06T06:16:47.531Z,18.90
2018-04-06T06:17:50.027Z,18.90
2018-04-06T06:18:53.290Z,18.90
2018-04-06T06:19:55.786Z,18.90
2018-04-06T06:20:59.068Z,18.90
2018-04-06T06:22:02.368Z,18.90
2018-04-06T06:23:04.860Z,18.90
2018-04-06T06:24:07.370Z,18.90
2018-04-06T06:25:10.637Z,18.90
2018-04-06T06:26:13.159Z,18.90
2018-04-06T06:27:15.670Z,18.80
2018-04-06T06:28:18.234Z,18.80
2018-04-06T06:29:20.734Z,18.90
2018-04-06T06:30:23.220Z,18.90
2018-04-06T06:31:25.728Z,18.90
2018-04-06T06:32:28.224Z,18.90
2018-04-06T06:33:31.530Z,18.90
2018-04-06T06:34:34.020Z,18.80
2018-04-06T06:35:36.527Z,18.90
2018-04-06T06:36:39.796Z,18.80
2018-04-06T06:37:42.293Z,18.80
2018-04-06T06:38:44.795Z,18.80
2018-04-06T06:39:47.297Z,18.80
2018-04-06T06:40:49.784Z,18.80
2018-04-06T06:41:52.293Z,18.90
2018-04-06T06:42:54.823Z,18.80
2018-04-06T06:43:58.064Z,18.80
2018-04-06T06:45:00.560Z,18.80
2018-04-06T06:46:03.062Z,18.90
2018-04-06T06:47:06.336Z,18.90
2018-04-06T06:48:08.867Z,18.90
2018-04-06T06:49:11.360Z,18.80
2018-04-06T06:50:13.900Z,18.80
2018-04-06T06:51:16.420Z,18.80
2018-04-06T06:52:18.915Z,18.80
2018-04-06T06:53:21.412Z,18.80
2018-04-06T06:54:23.970Z,18.90
2018-04-06T06:55:26.429Z,18.80
2018-04-06T06:56:28.922Z,18.90
2018-04-06T06:57:31.418Z,18.90
2018-04-06T06:58:33.921Z,18.80
2018-04-06T06:59:37.196Z,18.80
2018-04-06T07:00:40.456Z,18.80
2018-04-06T07:01:42.985Z,18.80
2018-04-06T07:02:45.481Z,18.80
2018-04-06T07:03:47.987Z,18.80
2018-04-06T07:04:51.241Z,18.80
2018-04-06T07:05:54.515Z,18.80
2018-04-06T07:06:57.042Z,18.80
2018-04-06T07:07:59.528Z,18.80
2018-04-06T07:09:02.043Z,18.80
2018-04-06T07:10:04.541Z,18.80
2018-04-06T07:11:07.040Z,18.80
2018-04-06T07:12:09.539Z,18.80
2018-04-06T07:13:12.812Z,18.80
2018-04-06T07:14:16.116Z,18.80
2018-04-06T07:15:19.453Z,18.80
2018-04-06T07:16:22.716Z,18.80
2018-04-06T07:17:25.212Z,18.80
2018-04-06T07:18:27.708Z,18.80
2018-04-06T07:19:31.001Z,18.80
2018-04-06T07:20:33.511Z,18.80
2018-04-06T07:21:36.000Z,18.80
2018-04-06T07:22:38.494Z,18.80
2018-04-06T07:23:41.007Z,18.80
2018-04-06T07:24:43.529Z,18.80
2018-04-06T07:25:46.030Z,18.80
2018-04-06T07:26:48.529Z,18.80
2018-04-06T07:27:51.048Z,18.80
2018-04-06T07:28:53.544Z,18.80
2018-04-06T07:29:56.048Z,18.80
2018-04-06T07:30:58.552Z,18.80
2018-04-06T07:32:01.069Z,18.80
2018-04-06T07:33:04.328Z,18.80
2018-04-06T07:34:06.842Z,18.80
2018-04-06T07:35:09.353Z,18.80
2018-04-06T07:36:11.891Z,18.80
2018-04-06T07:37:14.381Z,18.80
2018-04-06T07:38:16.880Z,18.80
2018-04-06T07:39:20.150Z,18.90
2018-04-06T07:40:23.558Z,18.90
2018-04-06T07:41:26.105Z,18.90
2018-04-06T07:42:29.367Z,18.80
2018-04-06T07:43:31.885Z,18.90
2018-04-06T07:44:34.399Z,18.90
2018-04-06T07:45:36.935Z,18.90
2018-04-06T07:46:39.449Z,18.90
2018-04-06T07:47:42.772Z,18.80
2018-04-06T07:48:45.256Z,18.80
2018-04-06T07:49:47.749Z,18.90
2018-04-06T07:50:50.382Z,18.90
2018-04-06T07:51:52.905Z,18.90
2018-04-06T07:52:56.172Z,18.90
2018-04-06T07:53:58.673Z,18.90
2018-04-06T07:55:01.204Z,18.90
2018-04-06T07:56:03.692Z,18.90
2018-04-06T07:57:07.006Z,18.90
2018-04-06T07:58:09.507Z,18.90
2018-04-06T07:59:12.027Z,18.90
2018-04-06T08:00:14.536Z,18.90
2018-04-06T08:01:17.034Z,18.90
2018-04-06T08:02:20.308Z,19.00
2018-04-06T08:03:23.614Z,19.00
2018-04-06T08:04:26.941Z,19.00
2018-04-06T08:05:29.437Z,19.00
2018-04-06T08:06:31.976Z,19.00
2018-04-06T08:07:34.472Z,19.00
2018-04-06T08:08:37.732Z,19.10
2018-04-06T08:09:40.244Z,19.00
2018-04-06T08:10:42.787Z,19.10
2018-04-06T08:11:45.251Z,19.10
2018-04-06T08:12:48.530Z,19.10
2018-04-06T08:13:51.788Z,19.10
2018-04-06T08:14:54.306Z,19.10
2018-04-06T08:15:56.812Z,19.10
2018-04-06T08:16:59.311Z,19.10
2018-04-06T08:18:02.591Z,19.10
2018-04-06T08:19:05.864Z,19.10
2018-04-06T08:20:08.360Z,19.10
2018-04-06T08:21:10.879Z,19.10
2018-04-06T08:22:13.381Z,19.10
2018-04-06T08:23:16.646Z,19.00
2018-04-06T08:24:19.136Z,19.00
2018-04-06T08:25:21.649Z,19.00
2018-04-06T08:26:24.164Z,19.00
2018-04-06T08:27:26.676Z,19.00
2018-04-06T08:28:29.187Z,19.00
2018-04-06T08:29:32.471Z,19.10
2018-04-06T08:30:35.748Z,19.10
2018-04-06T08:31:39.001Z,19.10
2018-04-06T08:32:41.498Z,19.00
2018-04-06T08:33:44.743Z,19.10
2018-04-06T08:34:47.996Z,19.10
2018-04-06T08:35:50.504Z,19.10
2018-04-06T08:36:53.011Z,19.10
2018-04-06T08:37:55.500Z,19.10
2018-04-06T08:38:58.001Z,19.10
2018-04-06T08:40:01.352Z,19.10
2018-04-06T08:41:03.891Z,19.10
2018-04-06T08:42:06.385Z,19.00
2018-04-06T08:43:08.933Z,19.00
2018-04-06T08:44:12.197Z,19.00
2018-04-06T08:45:15.489Z,19.00
2018-04-06T08:46:18.000Z,19.00
2018-04-06T08:47:20.501Z,19.00
2018-04-06T08:48:23.773Z,19.00
2018-04-06T08:49:26.279Z,19.00
2018-04-06T08:50:28.780Z,19.10
2018-04-06T08:51:31.307Z,19.10
2018-04-06T08:52:33.836Z,19.10
2018-04-06T08:53:37.951Z,19.10
2018-04-06T08:54:41.240Z,19.10
2018-04-06T08:55:44.508Z,19.10
2018-04-06T08:56:47.020Z,19.10
2018-04-06T08:57:49.516Z,19.20
2018-04-06T08:58:52.014Z,19.20
2018-04-06T08:59:55.291Z,19.20
2018-04-06T09:00:58.548Z,19.20
2018-04-06T09:02:01.260Z,19.20
2018-04-06T09:03:03.779Z,19.20
2018-04-06T09:04:06.338Z,19.20
2018-04-06T09:05:08.886Z,19.30
2018-04-06T09:06:11.570Z,19.30
2018-04-06T09:07:14.122Z,19.20
2018-04-06T09:08:16.641Z,19.30
2018-04-06T09:09:19.918Z,19.30
2018-04-06T09:10:23.183Z,19.30
2018-04-06T09:11:25.715Z,19.30
2018-04-06T09:12:28.228Z,19.30
2018-04-06T09:13:30.731Z,19.30
2018-04-06T09:14:33.244Z,19.30
2018-04-06T09:15:35.787Z,19.30
2018-04-06T09:16:38.312Z,19.30
2018-04-06T09:17:41.588Z,19.30
2018-04-06T09:18:44.867Z,19.30
2018-04-06T09:20:06.054Z,19.30
2018-04-06T09:21:08.556Z,19.30
2018-04-06T09:22:11.068Z,19.30
2018-04-06T09:23:13.573Z,19.40
2018-04-06T09:24:16.837Z,19.40
2018-04-06T09:25:19.375Z,19.40
2018-04-06T09:26:21.885Z,19.40
2018-04-06T09:27:25.186Z,19.50
2018-04-06T09:28:27.677Z,19.50
2018-04-06T09:29:30.172Z,19.50
2018-04-06T09:30:32.827Z,19.50
2018-04-06T09:31:35.356Z,19.50
2018-04-06T09:32:38.616Z,19.50
2018-04-06T09:33:41.932Z,19.50
2018-04-06T09:34:45.195Z,19.50
2018-04-06T09:35:48.455Z,19.50
2018-04-06T09:36:50.964Z,19.50
2018-04-06T09:37:53.484Z,19.60
2018-04-06T09:38:55.985Z,19.60
2018-04-06T09:39:58.488Z,19.60
2018-04-06T09:41:01.078Z,19.60
2018-04-06T09:42:04.268Z,19.50
2018-04-06T09:43:06.808Z,19.60
2018-04-06T09:44:09.337Z,19.60
2018-04-06T09:45:12.191Z,19.60
2018-04-06T09:46:15.443Z,19.60
2018-04-06T09:47:17.940Z,19.60
2018-04-06T09:48:21.205Z,19.60
2018-04-06T09:49:23.708Z,19.60
2018-04-06T09:50:26.191Z,19.60
2018-04-06T09:51:28.688Z,19.60
2018-04-06T09:52:31.184Z,19.60
2018-04-06T09:53:33.727Z,19.60
2018-04-06T09:54:36.253Z,19.60
2018-04-06T09:55:38.860Z,19.60
2018-04-06T09:56:43.545Z,19.60
2018-04-06T09:57:46.040Z,19.60
2018-04-06T09:58:49.319Z,19.60
2018-04-06T09:59:51.852Z,19.60
2018-04-06T10:00:59.134Z,19.70
2018-04-06T10:02:07.164Z,19.70
2018-04-06T10:03:09.660Z,19.70
2018-04-06T10:04:12.204Z,19.60
2018-04-06T10:05:15.478Z,19.70
2018-04-06T10:06:18.074Z,19.70
2018-04-06T10:07:20.573Z,19.70
2018-04-06T10:08:23.064Z,19.70
2018-04-06T10:09:26.357Z,19.80
2018-04-06T10:10:28.844Z,19.80
2018-04-06T10:11:31.360Z,19.80
2018-04-06T10:12:33.849Z,19.80
2018-04-06T10:13:36.917Z,19.80
2018-04-06T10:14:39.412Z,19.80
2018-04-06T10:15:42.675Z,19.80
2018-04-06T10:16:45.213Z,19.80
2018-04-06T10:17:47.713Z,19.80
2018-04-06T10:18:50.998Z,19.90
2018-04-06T10:19:54.252Z,19.80
2018-04-06T10:20:56.743Z,19.80
2018-04-06T10:21:59.290Z,19.70
2018-04-06T10:23:01.804Z,19.50
2018-04-06T10:24:08.257Z,19.30
2018-04-06T10:25:10.779Z,19.30
2018-04-06T10:26:13.285Z,19.20
2018-04-06T10:27:15.802Z,19.20
2018-04-06T10:28:18.337Z,19.30
2018-04-06T10:29:20.846Z,19.20
2018-04-06T10:30:23.358Z,19.10
2018-04-06T10:31:25.857Z,19.20
2018-04-06T10:32:28.355Z,19.20
2018-04-06T10:33:30.861Z,19.30
2018-04-06T10:34:34.137Z,19.30
2018-04-06T10:35:36.644Z,19.30
2018-04-06T10:36:39.186Z,19.30
2018-04-06T10:37:41.702Z,19.30
2018-04-06T10:38:44.961Z,19.20
2018-04-06T10:39:47.470Z,19.20
2018-04-06T10:40:50.064Z,19.20
2018-04-06T10:41:52.565Z,19.10
2018-04-06T10:42:55.065Z,19.10
2018-04-06T10:43:58.336Z,19.00
2018-04-06T10:45:00.840Z,19.00
2018-04-06T10:46:03.380Z,19.00
2018-04-06T10:47:05.903Z,19.00
2018-04-06T10:48:08.391Z,19.00
2018-04-06T10:49:10.884Z,19.00
2018-04-06T10:50:14.328Z,19.00
2018-04-06T10:51:16.870Z,19.10
2018-04-06T10:52:19.369Z,19.10
2018-04-06T10:53:22.747Z,19.00
2018-04-06T10:54:25.252Z,19.00
2018-04-06T10:55:27.770Z,19.00
2018-04-06T10:56:30.280Z,19.00
2018-04-06T10:57:32.765Z,19.00
2018-04-06T10:58:35.377Z,18.90
2018-04-06T10:59:37.856Z,19.00
2018-04-06T11:00:41.193Z,19.00
2018-04-06T11:01:43.689Z,18.90
2018-04-06T11:02:46.244Z,18.90
2018-04-06T11:03:48.828Z,18.90
2018-04-06T11:04:51.352Z,18.90
2018-04-06T11:05:53.926Z,18.90
2018-04-06T11:06:56.447Z,19.00
2018-04-06T11:07:59.704Z,18.90
2018-04-06T11:09:02.212Z,19.00
2018-04-06T11:10:04.757Z,19.00
2018-04-06T11:11:07.260Z,19.00
2018-04-06T11:12:09.757Z,18.90
2018-04-06T11:13:12.278Z,19.00
2018-04-06T11:14:14.786Z,18.90
2018-04-06T11:15:17.300Z,18.90
2018-04-06T11:16:19.848Z,18.90
2018-04-06T11:17:22.336Z,18.90
2018-04-06T11:18:24.972Z,18.90
2018-04-06T11:19:27.466Z,19.00
2018-04-06T11:20:29.963Z,19.10
2018-04-06T11:21:32.478Z,19.20
2018-04-06T11:22:35.752Z,19.20
2018-04-06T11:23:39.019Z,19.20
2018-04-06T11:24:41.520Z,19.20
2018-04-06T11:25:44.775Z,19.90
2018-04-06T11:26:47.309Z,19.90
2018-04-06T11:27:49.796Z,19.80
2018-04-06T11:28:52.288Z,19.70
2018-04-06T11:29:54.799Z,19.60
2018-04-06T11:30:57.440Z,19.60
2018-04-06T11:31:59.956Z,19.50
2018-04-06T11:33:02.473Z,19.60
2018-04-06T11:34:04.982Z,19.60
2018-04-06T11:35:07.486Z,19.70
2018-04-06T11:36:09.981Z,19.60
2018-04-06T11:37:12.493Z,19.60
2018-04-06T11:38:15.000Z,19.60
2018-04-06T11:39:17.504Z,19.50
2018-04-06T11:40:20.011Z,19.50
2018-04-06T11:41:23.273Z,19.50
2018-04-06T11:42:25.784Z,19.40
2018-04-06T11:43:28.318Z,19.50
2018-04-06T11:44:31.592Z,19.70
2018-04-06T11:45:34.093Z,19.70
2018-04-06T11:46:37.375Z,19.80
2018-04-06T11:47:39.899Z,19.80
2018-04-06T11:48:42.384Z,19.90
2018-04-06T11:49:45.646Z,19.80
2018-04-06T11:50:48.152Z,19.80
2018-04-06T11:51:50.643Z,19.80
2018-04-06T11:52:53.149Z,19.80
2018-04-06T11:53:55.666Z,19.80
2018-04-06T11:54:58.156Z,19.80
2018-04-06T11:56:00.651Z,19.90
2018-04-06T11:57:03.954Z,20.00
2018-04-06T11:58:06.501Z,20.00
2018-04-06T11:59:09.770Z,20.10
2018-04-06T12:00:12.275Z,20.10
2018-04-06T12:01:14.769Z,20.20
2018-04-06T12:02:17.268Z,20.20
2018-04-06T12:03:19.776Z,20.20
2018-04-06T12:04:22.290Z,20.30
2018-04-06T12:05:24.804Z,20.30
2018-04-06T12:06:27.300Z,20.40
2018-04-06T12:07:29.796Z,20.40
2018-04-06T12:08:33.122Z,20.40
2018-04-06T12:09:35.630Z,20.40
2018-04-06T12:10:38.256Z,20.40
2018-04-06T12:11:40.770Z,20.40
2018-04-06T12:12:43.286Z,20.50
2018-04-06T12:13:45.802Z,20.50
2018-04-06T12:14:48.301Z,20.60
2018-04-06T12:15:50.808Z,20.60
2018-04-06T12:16:53.324Z,20.60
2018-04-06T12:17:56.592Z,20.60
2018-04-06T12:18:59.093Z,20.60
2018-04-06T12:20:01.592Z,20.50
2018-04-06T12:21:04.141Z,20.60
2018-04-06T12:22:06.724Z,20.70
2018-04-06T12:23:09.233Z,20.70
2018-04-06T12:24:12.513Z,20.70
2018-04-06T12:25:15.793Z,20.70
2018-04-06T12:26:19.098Z,20.70
2018-04-06T12:27:21.744Z,20.70
2018-04-06T12:28:25.019Z,20.70
2018-04-06T12:29:28.296Z,20.70
2018-04-06T12:30:30.805Z,20.70
2018-04-06T12:31:33.318Z,20.70
2018-04-06T12:32:35.843Z,20.70
2018-04-06T12:33:38.375Z,20.70
2018-04-06T12:34:41.673Z,20.70
2018-04-06T12:35:44.167Z,20.70
2018-04-06T12:36:46.682Z,20.70
2018-04-06T12:37:49.944Z,20.80
2018-04-06T12:38:52.462Z,20.80
2018-04-06T12:39:54.980Z,20.90
2018-04-06T12:40:57.506Z,20.90
2018-04-06T12:42:00.026Z,21.00
2018-04-06T12:43:03.257Z,21.00
2018-04-06T12:44:05.779Z,21.10
2018-04-06T12:45:09.105Z,21.20
2018-04-06T12:46:11.615Z,21.10
2018-04-06T12:47:14.567Z,21.20
2018-04-06T12:48:17.103Z,21.20
2018-04-06T12:49:19.624Z,21.20
2018-04-06T12:50:22.143Z,21.20
2018-04-06T12:51:24.724Z,21.20
2018-04-06T12:52:28.007Z,21.30
2018-04-06T12:53:30.792Z,21.30
2018-04-06T12:54:34.101Z,21.30
2018-04-06T12:55:37.392Z,21.30
2018-04-06T12:56:40.730Z,21.20
2018-04-06T12:57:43.282Z,21.20
2018-04-06T12:58:45.845Z,21.20
2018-04-06T12:59:48.362Z,21.10
2018-04-06T13:00:50.889Z,21.00
2018-04-06T13:01:53.426Z,20.90
2018-04-06T13:02:55.946Z,21.10
2018-04-06T13:03:58.472Z,21.20
2018-04-06T13:05:00.973Z,21.30
2018-04-06T13:06:03.480Z,21.40
2018-04-06T13:07:06.001Z,21.50
2018-04-06T13:08:08.536Z,21.60
2018-04-06T13:09:11.058Z,21.60
2018-04-06T13:10:13.585Z,21.70
2018-04-06T13:11:17.261Z,21.70
2018-04-06T13:12:20.646Z,21.70
2018-04-06T13:13:23.316Z,21.70
2018-04-06T13:14:26.818Z,21.80
2018-04-06T13:15:29.370Z,21.80
2018-04-06T13:16:31.878Z,21.90
2018-04-06T13:17:34.424Z,21.80
2018-04-06T13:18:36.952Z,21.80
2018-04-06T13:19:39.448Z,21.90
2018-04-06T13:20:41.964Z,21.90
2018-04-06T13:21:45.265Z,22.00
2018-04-06T13:22:47.818Z,22.00
2018-04-06T13:23:51.110Z,22.00
2018-04-06T13:24:53.629Z,22.00
2018-04-06T13:25:57.281Z,22.10
2018-04-06T13:26:59.869Z,22.10
2018-04-06T13:28:03.152Z,22.10
2018-04-06T13:29:06.521Z,22.10
2018-04-06T13:30:09.105Z,22.10